Time;durP1;ratioP1;P1;durP2;ratioP2;P2;SDS_P1;SDS_P2;PMS_P1;PMS_P2;Temp;Humidity;BMP_temperature;BMP_pressure;BME280_temperature;BME280_humidity;BME280_pressure;Samples;Min_cycle;Max_cycle;Signal;HPM_P1;HPM_P2
2023/07/16 00:01:48;;;;;;;12.47;11.30;;;;;;;26.02;77.29;95088.00;5113356;28;20446;-80
2023/07/16 00:04:15;;;;;;;14.20;10.33;;;;;;;25.98;76.97;95088.63;5113021;28;20450;-80
2023/07/16 00:06:42;;;;;;;14.90;10.13;;;;;;;25.91;77.15;95089.53;5113146;28;20439;-79
2023/07/16 00:09:09;;;;;;;10.13;9.10;;;;;;;25.81;77.13;95083.84;5113284;28;20439;-78
2023/07/16 00:11:35;;;;;;;10.67;9.57;;;;;;;25.74;77.37;95077.69;5113682;28;20446;-79
2023/07/16 00:14:04;;;;;;;11.40;10.03;;;;;;;25.81;77.09;95083.84;5113234;28;20451;-79
2023/07/16 00:16:30;;;;;;;13.93;9.83;;;;;;;25.81;77.40;95078.44;5113612;28;20490;-80
2023/07/16 00:18:57;;;;;;;11.13;10.00;;;;;;;25.85;76.90;95090.41;5113198;28;20489;-79
2023/07/16 00:21:24;;;;;;;12.30;8.37;;;;;;;25.85;77.20;95079.66;5113158;28;20447;-80
2023/07/16 00:23:51;;;;;;;11.50;9.23;;;;;;;25.84;76.91;95078.00;5113101;28;20821;-80
2023/07/16 00:26:18;;;;;;;14.60;10.60;;;;;;;25.88;76.91;95083.75;5113003;28;20446;-79
2023/07/16 00:28:45;;;;;;;13.30;9.83;;;;;;;25.85;76.87;95085.03;5113116;28;20859;-80
2023/07/16 00:31:13;;;;;;;11.83;9.87;;;;;;;25.85;76.92;95079.66;5113115;28;20454;-79
2023/07/16 00:33:40;;;;;;;10.83;9.73;;;;;;;25.82;77.05;95082.78;5113392;28;20443;-80
2023/07/16 00:36:06;;;;;;;10.80;8.30;;;;;;;25.81;76.85;95089.22;5113148;28;20481;-80
2023/07/16 00:38:33;;;;;;;12.33;11.17;;;;;;;25.84;77.13;95082.56;5112805;28;20482;-80
2023/07/16 00:41:01;;;;;;;9.97;8.60;;;;;;;25.83;76.93;95081.75;5112970;28;20929;-80
2023/07/16 00:43:27;;;;;;;14.10;9.50;;;;;;;25.81;77.19;95080.31;5112872;28;20443;-81
2023/07/16 00:45:55;;;;;;;10.60;8.17;;;;;;;25.81;77.32;95088.38;5112654;28;20446;-80
2023/07/16 00:48:24;;;;;;;9.10;8.20;;;;;;;25.77;77.46;95084.50;5077342;28;20449;-80
2023/07/16 00:50:52;;;;;;;12.63;9.60;;;;;;;25.69;77.64;95090.94;5112932;28;20951;-77
2023/07/16 00:53:18;;;;;;;10.53;9.53;;;;;;;25.56;78.07;95082.97;5113184;28;20450;-80
2023/07/16 00:55:46;;;;;;;14.60;8.70;;;;;;;25.58;77.92;95075.50;5112780;28;20438;-80
2023/07/16 00:58:13;;;;;;;10.57;8.90;;;;;;;25.55;78.13;95079.44;5112691;28;20485;-79
2023/07/16 01:00:41;;;;;;;10.60;7.90;;;;;;;25.56;78.46;95085.66;5113002;28;20810;-81
2023/07/16 01:03:10;;;;;;;8.77;7.80;;;;;;;25.57;77.74;95087.28;5113124;28;20439;-77
2023/07/16 01:05:46;;;;;;;9.20;7.60;;;;;;;25.49;78.08;95084.88;5113265;28;20438;-80
2023/07/16 01:08:15;;;;;;;10.70;8.13;;;;;;;25.43;78.04;95091.91;5082388;28;20450;-80
2023/07/16 01:10:43;;;;;;;8.87;7.90;;;;;;;25.46;78.04;95082.63;5116563;28;20443;-79
2023/07/16 01:13:10;;;;;;;12.23;8.80;;;;;;;25.46;78.01;95077.25;5116469;28;20450;-79
2023/07/16 01:15:37;;;;;;;8.80;8.10;;;;;;;25.47;77.89;95081.59;5116667;28;20446;-80
2023/07/16 01:18:06;;;;;;;21.53;8.30;;;;;;;25.41;78.32;95082.44;5116044;28;20489;-81
2023/07/16 01:20:33;;;;;;;12.43;8.60;;;;;;;25.44;78.12;95087.38;5116174;28;20972;-75
2023/07/16 01:23:27;;;;;;;10.60;8.37;;;;;;;25.49;78.15;95082.19;5116407;28;20431;-80
2023/07/16 01:26:17;;;;;;;11.17;8.30;;;;;;;25.42;78.15;95078.69;5116206;28;20458;-79
2023/07/16 01:29:15;;;;;;;14.73;7.97;;;;;;;25.41;77.78;95079.75;5053230;28;20944;-80
2023/07/16 01:31:42;;;;;;;7.63;6.93;;;;;;;25.36;78.25;95076.88;5053174;28;20446;-80
2023/07/16 01:34:11;;;;;;;9.03;7.40;;;;;;;25.28;78.40;95073.44;5019945;28;20948;-80
2023/07/16 01:36:40;;;;;;;8.97;7.80;;;;;;;25.24;78.58;95066.84;5052755;28;20465;-80
2023/07/16 01:39:07;;;;;;;7.77;7.00;;;;;;;25.25;78.45;95070.34;5036592;28;20948;-80
2023/07/16 01:41:34;;;;;;;9.00;8.10;;;;;;;25.26;78.43;95072.81;5053456;28;20944;-78
2023/07/16 01:44:00;;;;;;;8.90;7.97;;;;;;;25.25;78.24;95073.88;5053422;28;20446;-80
2023/07/16 01:46:29;;;;;;;10.00;8.23;;;;;;;25.14;78.71;95071.03;5052856;28;20956;-80
2023/07/16 01:48:56;;;;;;;10.13;7.43;;;;;;;25.14;78.91;95076.41;5052959;28;20522;-79
2023/07/16 01:51:23;;;;;;;7.63;6.80;;;;;;;25.14;78.46;95071.84;5053043;28;20457;-80
2023/07/16 01:53:49;;;;;;;14.63;7.27;;;;;;;25.08;78.80;95077.25;5053176;28;20476;-80
2023/07/16 01:56:16;;;;;;;10.90;8.03;;;;;;;25.17;78.58;95082.19;5053310;28;20450;-79
2023/07/16 01:58:43;;;;;;;7.63;6.33;;;;;;;25.18;77.83;95078.47;5052706;28;20478;-80
2023/07/16 02:01:10;;;;;;;9.10;6.50;;;;;;;25.28;77.64;95089.56;5052974;28;20457;-80
2023/07/16 02:03:38;;;;;;;7.57;6.77;;;;;;;25.37;77.59;95091.97;5052614;28;20452;-80
2023/07/16 02:06:05;;;;;;;12.33;7.50;;;;;;;25.43;77.48;95085.72;5087805;28;20451;-79
2023/07/16 02:08:31;;;;;;;9.27;7.43;;;;;;;25.48;77.26;95093.97;5115170;28;20499;-80
2023/07/16 02:10:58;;;;;;;13.37;8.10;;;;;;;25.50;77.01;95089.22;5115253;28;20808;-80
2023/07/16 02:13:25;;;;;;;9.87;7.80;;;;;;;25.50;76.94;95079.28;5115145;28;20435;-79
2023/07/16 02:15:52;;;;;;;12.00;6.70;;;;;;;25.53;76.57;95080.72;5062925;28;20438;-79
2023/07/16 02:18:19;;;;;;;9.20;6.40;;;;;;;25.55;76.00;95082.13;5114420;28;20482;-78
2023/07/16 02:20:47;;;;;;;11.50;7.57;;;;;;;25.57;76.51;95093.50;5063308;28;20443;-76
2023/07/16 02:23:13;;;;;;;8.30;7.20;;;;;;;25.54;76.57;95093.94;5115435;28;20443;-80
2023/07/16 02:25:40;;;;;;;7.50;6.90;;;;;;;25.50;76.49;95086.53;5115238;28;20451;-80
2023/07/16 02:28:07;;;;;;;10.17;7.20;;;;;;;25.45;76.31;95091.72;5115150;28;20447;-80
2023/07/16 02:30:34;;;;;;;8.80;7.07;;;;;;;25.40;76.88;95086.16;5114859;28;20439;-80
2023/07/16 02:33:01;;;;;;;8.70;6.70;;;;;;;25.27;77.07;95087.91;5114892;28;20450;-79
2023/07/16 02:35:27;;;;;;;12.00;8.13;;;;;;;25.23;77.52;95084.00;5062336;28;20474;-80
2023/07/16 02:37:56;;;;;;;9.27;7.03;;;;;;;24.98;78.59;95088.44;5115088;28;20482;-80
2023/07/16 02:40:22;;;;;;;7.50;6.80;;;;;;;25.02;78.69;95085.16;5114954;28;20788;-80
2023/07/16 02:42:49;;;;;;;14.53;7.73;;;;;;;25.02;78.88;95092.38;5115037;28;20447;-80
2023/07/16 02:45:16;;;;;;;7.73;7.03;;;;;;;25.02;79.55;95089.69;5114711;28;20446;-80
2023/07/16 02:47:43;;;;;;;9.60;6.97;;;;;;;24.98;78.96;95085.75;5062324;28;20438;-78
2023/07/16 02:50:11;;;;;;;8.20;7.43;;;;;;;24.97;79.27;95082.25;5114832;28;20447;-80
2023/07/16 02:52:37;;;;;;;8.07;6.97;;;;;;;24.79;79.79;95074.06;5114438;28;20443;-80
2023/07/16 02:55:06;;;;;;;9.47;7.37;;;;;;;24.86;79.69;95098.19;5114517;28;20957;-80
2023/07/16 02:57:33;;;;;;;10.27;7.03;;;;;;;24.85;80.06;95092.00;5114518;28;20489;-80
2023/07/16 03:00:00;;;;;;;12.90;6.80;;;;;;;24.75;79.82;95082.75;5114514;28;20447;-80
2023/07/16 03:02:27;;;;;;;7.90;7.10;;;;;;;24.76;79.77;95084.41;5115110;28;20442;-80
2023/07/16 03:04:54;;;;;;;8.60;7.20;;;;;;;24.76;79.69;95095.16;5114747;28;20442;-80
2023/07/16 03:07:21;;;;;;;9.50;7.17;;;;;;;24.76;79.02;95087.91;5114284;28;20801;-79
2023/07/16 03:09:47;;;;;;;8.13;6.93;;;;;;;24.76;79.60;95090.59;5114813;28;20450;-78
2023/07/16 03:12:16;;;;;;;6.60;6.03;;;;;;;24.78;79.41;95095.75;5114335;28;20449;-80
2023/07/16 03:14:42;;;;;;;7.97;6.50;;;;;;;24.80;79.35;95096.38;5114298;28;20450;-81
2023/07/16 03:17:09;;;;;;;14.47;6.90;;;;;;;24.82;78.98;95094.28;5114353;28;20457;-80
2023/07/16 03:19:36;;;;;;;10.80;6.80;;;;;;;24.85;78.52;95096.53;5114178;28;20917;-79
2023/07/16 03:22:03;;;;;;;7.53;6.83;;;;;;;24.76;79.16;95103.19;5114224;28;20455;-80
2023/07/16 03:24:30;;;;;;;12.93;7.40;;;;;;;24.57;80.40;95107.59;5113928;28;20453;-80
2023/07/16 03:26:57;;;;;;;7.60;6.73;;;;;;;24.62;80.27;95099.75;5113796;28;20934;-79
2023/07/16 03:29:25;;;;;;;8.20;5.80;;;;;;;24.79;79.02;95108.13;5094707;28;20486;-79
2023/07/16 03:31:52;;;;;;;10.33;6.47;;;;;;;25.00;78.35;95110.56;5113872;28;20439;-80
2023/07/16 03:34:19;;;;;;;8.90;6.60;;;;;;;25.15;77.47;95105.72;5113759;28;20445;-80
2023/07/16 03:36:46;;;;;;;7.73;6.93;;;;;;;25.39;75.98;95106.00;5113668;28;20485;-79
2023/07/16 03:39:12;;;;;;;6.83;5.67;;;;;;;25.64;75.14;95109.56;5063276;28;20479;-79
2023/07/16 03:41:39;;;;;;;8.00;6.40;;;;;;;25.97;73.87;95105.81;5119761;28;20451;-79
2023/07/16 03:44:06;;;;;;;6.40;5.83;;;;;;;26.26;71.82;95115.91;5119430;28;20443;-79
2023/07/16 03:46:34;;;;;;;8.50;5.60;;;;;;;26.47;71.04;95112.00;5120529;28;20806;-80
2023/07/16 03:49:01;;;;;;;6.40;5.70;;;;;;;26.71;70.35;95116.50;5065529;28;20508;-78
2023/07/16 03:51:28;;;;;;;6.13;5.53;;;;;;;26.91;69.46;95112.78;5118871;28;20786;-79
2023/07/16 03:53:55;;;;;;;11.70;5.40;;;;;;;27.15;68.33;95118.06;5118641;28;20447;-80
2023/07/16 03:56:22;;;;;;;5.70;5.07;;;;;;;27.38;66.26;95117.34;5118327;28;20451;-80
2023/07/16 03:58:48;;;;;;;8.60;6.20;;;;;;;27.58;66.37;95111.66;5115634;28;20475;-80
2023/07/16 04:01:15;;;;;;;7.50;6.03;;;;;;;27.80;65.70;95120.09;5114829;28;20450;-79
2023/07/16 04:03:43;;;;;;;16.33;6.17;;;;;;;28.03;64.42;95121.97;5114298;28;20446;-79
2023/07/16 04:06:11;;;;;;;5.67;5.03;;;;;;;28.15;63.94;95112.03;5114140;28;20446;-79
2023/07/16 04:08:39;;;;;;;7.17;4.50;;;;;;;28.30;63.73;95122.38;5113927;28;20446;-79
2023/07/16 04:11:06;;;;;;;5.80;5.23;;;;;;;28.41;62.20;95118.88;5116259;28;20436;-80
2023/07/16 04:13:32;;;;;;;6.90;5.70;;;;;;;28.47;62.70;95122.53;5126603;28;20438;-80
2023/07/16 04:15:59;;;;;;;17.07;5.17;;;;;;;28.52;62.01;95128.84;5126483;28;20443;-80
2023/07/16 04:18:26;;;;;;;6.93;5.37;;;;;;;28.54;61.49;95124.03;5126737;28;20491;-80
2023/07/16 04:20:55;;;;;;;5.63;5.00;;;;;;;28.48;61.09;95126.88;5126770;28;20438;-78
2023/07/16 04:23:21;;;;;;;7.80;5.50;;;;;;;28.46;62.14;95126.28;5126413;28;20442;-80
2023/07/16 04:25:52;;;;;;;6.07;5.30;;;;;;;28.57;61.28;95128.97;5126651;28;20449;-78
2023/07/16 04:28:19;;;;;;;5.73;4.80;;;;;;;28.69;61.21;95131.66;5126361;28;20457;-81
2023/07/16 04:30:46;;;;;;;6.17;4.77;;;;;;;28.85;60.45;95130.94;5126291;28;20427;-81
2023/07/16 04:33:13;;;;;;;5.50;4.97;;;;;;;29.01;60.12;95134.00;5126218;28;20450;-80
2023/07/16 04:35:40;;;;;;;9.83;6.17;;;;;;;29.15;60.92;95132.66;5125867;28;20478;-79
2023/07/16 04:38:08;;;;;;;10.43;6.23;;;;;;;29.25;61.54;95135.56;5118334;28;20483;-79
2023/07/16 04:40:35;;;;;;;8.90;6.50;;;;;;;29.43;60.64;95135.38;5114284;28;20447;-80
2023/07/16 04:43:02;;;;;;;6.73;6.13;;;;;;;29.60;60.54;95130.06;5117292;28;20446;-79
2023/07/16 04:45:29;;;;;;;6.27;5.70;;;;;;;29.87;58.94;95139.19;5065164;28;20533;-80
2023/07/16 04:47:56;;;;;;;8.90;5.63;;;;;;;30.06;58.43;95138.97;5116845;28;20439;-80
2023/07/16 04:50:22;;;;;;;8.57;7.00;;;;;;;30.18;57.45;95129.75;5064643;28;20450;-80
2023/07/16 04:52:49;;;;;;;8.97;6.00;;;;;;;30.44;56.87;95136.38;5119483;28;20442;-78
2023/07/16 04:55:20;;;;;;;8.57;6.23;;;;;;;30.68;56.71;95139.75;5126637;28;20446;-79
2023/07/16 04:57:47;;;;;;;7.83;5.70;;;;;;;30.86;56.09;95143.22;5128542;28;20837;-80
2023/07/16 05:00:14;;;;;;;8.63;5.40;;;;;;;31.06;53.71;95148.91;5130197;28;20868;-80
2023/07/16 05:02:41;;;;;;;8.00;5.77;;;;;;;31.22;52.83;95145.34;5085758;28;20511;-78
2023/07/16 05:05:09;;;;;;;9.10;5.80;;;;;;;31.28;53.15;95141.66;5098997;28;20443;-80
2023/07/16 05:07:36;;;;;;;8.83;5.87;;;;;;;31.37;52.25;95155.56;5118361;28;20447;-80
2023/07/16 05:10:02;;;;;;;7.70;6.87;;;;;;;31.45;52.19;95146.97;5117936;28;20953;-77
2023/07/16 05:12:33;;;;;;;5.40;5.00;;;;;;;31.66;52.53;95145.31;5117550;28;20470;-80
2023/07/16 05:14:59;;;;;;;11.00;5.07;;;;;;;31.86;51.27;95151.00;5116989;28;20466;-79
2023/07/16 05:17:26;;;;;;;7.47;6.40;;;;;;;31.95;50.49;95151.34;5116699;28;20527;-79
2023/07/16 05:19:55;;;;;;;7.37;6.67;;;;;;;31.99;51.02;95147.84;5116620;28;20489;-78
2023/07/16 05:22:24;;;;;;;6.70;5.77;;;;;;;32.08;51.95;95150.09;5116923;28;20439;-80
2023/07/16 05:24:51;;;;;;;6.60;5.83;;;;;;;32.12;51.87;95156.66;5116138;28;20972;-80
2023/07/16 05:27:19;;;;;;;11.50;5.90;;;;;;;32.02;50.82;95154.66;5115978;28;20447;-80
2023/07/16 05:29:47;;;;;;;8.47;5.30;;;;;;;31.96;50.73;95153.78;5116708;28;20446;-80
2023/07/16 05:32:14;;;;;;;8.40;6.10;;;;;;;31.41;51.26;95149.38;5116397;28;20537;-80
2023/07/16 05:34:41;;;;;;;6.27;5.73;;;;;;;31.39;52.37;95137.97;5116116;28;20447;-78
2023/07/16 05:37:08;;;;;;;6.77;5.93;;;;;;;31.61;53.66;95142.56;5116168;28;20466;-79
2023/07/16 05:39:35;;;;;;;11.90;6.10;;;;;;;31.72;52.62;95141.59;5115910;28;20483;-80
2023/07/16 05:42:02;;;;;;;6.87;6.27;;;;;;;31.68;51.84;95152.13;5115913;28;20475;-78
2023/07/16 05:44:29;;;;;;;6.43;5.90;;;;;;;31.90;51.65;95149.41;5080459;28;20801;-80
2023/07/16 05:46:57;;;;;;;7.13;6.07;;;;;;;32.07;51.99;95154.69;5116092;28;20443;-80
2023/07/16 05:49:25;;;;;;;7.47;5.90;;;;;;;32.40;51.36;95156.38;5115898;28;20443;-80
2023/07/16 05:51:55;;;;;;;6.10;5.53;;;;;;;32.60;50.06;95156.50;5114814;28;20975;-80
2023/07/16 05:54:23;;;;;;;7.77;5.77;;;;;;;32.69;48.86;95158.75;5079501;28;20435;-80
2023/07/16 05:56:51;;;;;;;5.40;5.00;;;;;;;32.79;48.89;95165.09;5116001;28;20450;-77
2023/07/16 05:59:18;;;;;;;5.50;5.10;;;;;;;32.94;48.27;95169.81;5080420;28;20482;-80
2023/07/16 06:01:45;;;;;;;10.63;5.77;;;;;;;32.98;48.43;95170.94;5115585;28;20439;-78
2023/07/16 06:04:15;;;;;;;8.80;6.53;;;;;;;32.91;48.78;95165.72;5115523;28;20447;-80
2023/07/16 06:06:42;;;;;;;7.73;5.90;;;;;;;32.95;49.73;95164.09;5115650;28;20454;-80
2023/07/16 06:09:09;;;;;;;7.03;5.73;;;;;;;33.25;49.59;95173.50;5079540;28;20488;-80
2023/07/16 06:11:36;;;;;;;7.70;5.97;;;;;;;33.42;49.62;95165.19;5115241;28;20446;-80
2023/07/16 06:14:06;;;;;;;6.57;5.43;;;;;;;33.59;47.80;95171.25;5063335;28;20462;-82
2023/07/16 06:16:32;;;;;;;6.67;6.03;;;;;;;33.72;46.63;95167.19;5115230;28;20963;-81
2023/07/16 06:18:59;;;;;;;6.03;5.50;;;;;;;33.89;47.75;95156.09;5079333;28;20535;-80
2023/07/16 06:21:27;;;;;;;9.67;5.13;;;;;;;33.83;46.21;95155.28;5062778;28;20918;-80
2023/07/16 06:23:58;;;;;;;11.10;5.57;;;;;;;33.77;46.47;95161.75;5115199;28;20790;-81
2023/07/16 06:26:25;;;;;;;6.90;5.53;;;;;;;33.73;46.96;95164.19;5115578;28;20847;-81
2023/07/16 06:28:52;;;;;;;13.53;6.37;;;;;;;33.96;46.64;95157.47;5115263;28;20458;-81
2023/07/16 06:31:21;;;;;;;9.83;6.10;;;;;;;34.25;46.08;95154.22;5062518;28;21045;-80
2023/07/16 06:33:50;;;;;;;7.03;5.73;;;;;;;34.58;44.83;95158.34;5114937;28;20443;-80
2023/07/16 06:36:20;;;;;;;5.00;4.70;;;;;;;34.80;44.91;95153.41;5114534;28;20851;-80
2023/07/16 06:38:48;;;;;;;9.00;6.20;;;;;;;34.60;43.55;95153.44;5114363;28;20981;-80
2023/07/16 06:41:15;;;;;;;5.60;5.10;;;;;;;34.68;43.79;95150.13;5114603;28;20439;-80
2023/07/16 06:43:43;;;;;;;6.57;5.77;;;;;;;34.86;44.04;95146.88;5114764;28;20937;-77
2023/07/16 06:46:13;;;;;;;5.60;5.10;;;;;;;35.14;43.49;95148.16;5114714;28;20451;-82
2023/07/16 06:48:42;;;;;;;7.57;5.33;;;;;;;35.22;43.04;95149.50;5114720;28;20446;-80
2023/07/16 06:51:10;;;;;;;8.00;5.60;;;;;;;35.25;42.85;95144.28;5115008;28;20451;-81
2023/07/16 06:53:37;;;;;;;5.93;5.53;;;;;;;35.38;42.47;95148.38;5114600;28;20450;-80
2023/07/16 06:56:05;;;;;;;7.07;5.60;;;;;;;35.63;42.41;95142.81;5114326;28;20447;-81
2023/07/16 06:58:33;;;;;;;6.90;6.00;;;;;;;35.93;41.28;95146.50;5077923;28;20989;-81
2023/07/16 07:01:00;;;;;;;8.90;6.13;;;;;;;36.18;41.10;95149.06;5114282;28;20854;-80
2023/07/16 07:03:29;;;;;;;8.30;5.73;;;;;;;36.33;41.01;95142.66;5113648;28;20435;-81
2023/07/16 07:05:55;;;;;;;7.20;6.30;;;;;;;36.49;40.28;95151.56;5113950;28;20483;-80
2023/07/16 07:08:22;;;;;;;6.43;5.93;;;;;;;36.50;40.67;95148.56;5114776;28;20454;-80
2023/07/16 07:10:50;;;;;;;7.03;5.73;;;;;;;36.20;39.46;95149.59;5115349;28;20784;-81
2023/07/16 07:13:21;;;;;;;7.80;5.60;;;;;;;35.95;40.56;95147.84;5078400;28;20443;-81
2023/07/16 07:15:48;;;;;;;6.30;5.63;;;;;;;35.90;41.08;95141.59;5114172;28;20443;-80
2023/07/16 07:18:15;;;;;;;8.10;6.47;;;;;;;35.90;40.63;95141.59;5113776;28;20454;-80
2023/07/16 07:20:42;;;;;;;8.80;6.50;;;;;;;35.98;41.92;95135.53;5113662;28;20486;-80
2023/07/16 07:23:08;;;;;;;9.73;6.40;;;;;;;36.07;41.38;95136.53;5061243;28;20451;-80
2023/07/16 07:25:37;;;;;;;7.13;5.73;;;;;;;36.02;41.06;95130.31;5078091;28;20466;-81
2023/07/16 07:28:04;;;;;;;7.60;6.60;;;;;;;36.13;41.73;95140.06;5113622;28;20945;-80
2023/07/16 07:30:32;;;;;;;6.20;5.60;;;;;;;35.90;41.05;95130.66;5078163;28;20451;-80
2023/07/16 07:32:59;;;;;;;7.53;6.83;;;;;;;35.81;42.40;95141.31;5113368;28;20443;-80
2023/07/16 07:35:26;;;;;;;7.13;6.53;;;;;;;35.23;42.83;95130.13;5113680;28;20478;-79
2023/07/16 07:37:53;;;;;;;11.17;7.13;;;;;;;35.48;42.85;95137.41;5113337;28;20445;-79
2023/07/16 07:40:21;;;;;;;9.50;6.87;;;;;;;35.50;42.37;95135.22;5113458;28;20482;-80
2023/07/16 07:42:57;;;;;;;13.67;7.33;;;;;;;34.88;42.63;95133.78;5113421;28;20450;-80
2023/07/16 07:45:27;;;;;;;6.80;6.20;;;;;;;34.40;44.93;95127.81;5113728;28;20442;-80
2023/07/16 07:47:55;;;;;;;6.40;5.90;;;;;;;34.67;44.68;95122.06;5113726;28;20805;-80
2023/07/16 07:50:22;;;;;;;9.00;6.27;;;;;;;34.19;44.77;95126.16;5113478;28;20460;-79
2023/07/16 07:52:49;;;;;;;6.53;5.63;;;;;;;34.25;44.34;95127.00;5113382;28;20454;-80
2023/07/16 07:55:16;;;;;;;6.87;6.20;;;;;;;34.42;44.78;95127.56;5113078;28;20447;-81
2023/07/16 07:57:42;;;;;;;6.27;5.77;;;;;;;34.50;43.42;95128.91;5113659;28;20453;-81
2023/07/16 08:00:12;;;;;;;7.60;5.70;;;;;;;34.34;44.92;95139.81;5060830;28;20501;-80
2023/07/16 08:02:39;;;;;;;6.33;5.83;;;;;;;34.32;44.79;95128.34;5061518;28;20479;-81
2023/07/16 08:05:09;;;;;;;7.30;6.60;;;;;;;33.85;45.22;95134.88;5060893;28;20932;-80
2023/07/16 08:07:36;;;;;;;7.63;6.47;;;;;;;33.83;45.82;95131.59;5113053;28;20447;-81
2023/07/16 08:10:07;;;;;;;7.13;6.53;;;;;;;33.84;46.38;95135.13;5113417;28;20443;-81
2023/07/16 08:12:34;;;;;;;7.17;6.40;;;;;;;33.98;46.12;95124.53;5113498;28;20526;-80
2023/07/16 08:15:01;;;;;;;8.47;6.80;;;;;;;33.89;46.28;95131.59;5112857;28;20435;-79
2023/07/16 08:17:31;;;;;;;5.77;5.37;;;;;;;33.82;46.46;95124.44;5117391;28;20929;-80
2023/07/16 08:19:58;;;;;;;6.07;5.23;;;;;;;33.94;45.76;95118.81;5117607;28;20669;-80
2023/07/16 08:22:26;;;;;;;8.53;5.80;;;;;;;33.93;45.66;95124.53;5117028;28;20447;-82
2023/07/16 08:24:53;;;;;;;10.47;5.90;;;;;;;33.92;45.42;95120.16;5117124;28;20427;-79
2023/07/16 08:27:19;;;;;;;9.60;6.80;;;;;;;34.05;45.23;95127.78;5117342;28;20449;-81
2023/07/16 08:29:46;;;;;;;11.80;6.50;;;;;;;34.07;46.29;95136.50;5116904;28;20458;-81
2023/07/16 08:32:13;;;;;;;12.50;6.67;;;;;;;34.06;45.57;95132.16;5117085;28;20446;-80
2023/07/16 08:34:40;;;;;;;7.30;6.53;;;;;;;34.20;45.95;95129.72;5117227;28;20446;-81
2023/07/16 08:37:07;;;;;;;8.03;6.80;;;;;;;34.16;45.48;95138.44;5064866;28;20474;-81
2023/07/16 08:39:35;;;;;;;6.97;6.37;;;;;;;33.97;45.97;95123.69;5117203;28;20479;-81
2023/07/16 08:42:02;;;;;;;10.33;6.77;;;;;;;34.12;45.51;95137.34;5081397;28;20442;-81
2023/07/16 08:44:30;;;;;;;7.40;6.70;;;;;;;34.21;46.15;95134.88;5117133;28;20442;-80
2023/07/16 08:46:57;;;;;;;7.80;7.10;;;;;;;34.29;46.86;95128.88;5117158;28;20443;-81
2023/07/16 08:49:26;;;;;;;10.63;6.90;;;;;;;34.31;46.97;95134.88;5116748;28;20435;-80
2023/07/16 08:51:55;;;;;;;10.27;7.20;;;;;;;34.41;46.63;95124.03;5116892;28;20934;-80
2023/07/16 08:54:24;;;;;;;6.60;5.90;;;;;;;34.41;45.53;95124.03;5116832;28;20443;-80
2023/07/16 08:56:52;;;;;;;6.87;6.27;;;;;;;34.52;46.18;95105.75;5116636;28;20450;-81
2023/07/16 08:59:21;;;;;;;7.30;6.60;;;;;;;34.72;45.56;95110.34;5116487;28;20482;-79
2023/07/16 09:01:48;;;;;;;7.20;6.50;;;;;;;34.61;45.59;95122.34;5116731;28;20446;-81
2023/07/16 09:04:16;;;;;;;12.47;7.50;;;;;;;34.38;47.01;95116.38;5116491;28;20435;-81
2023/07/16 09:06:45;;;;;;;7.67;6.87;;;;;;;33.94;46.92;95110.63;5116446;28;20431;-81
2023/07/16 09:09:21;;;;;;;9.13;7.63;;;;;;;33.86;47.19;95114.72;5116454;28;20439;-80
2023/07/16 09:11:50;;;;;;;9.27;6.87;;;;;;;34.10;46.99;95112.25;5116340;28;20591;-80
2023/07/16 09:14:21;;;;;;;8.10;7.30;;;;;;;34.33;45.85;95115.53;5116226;28;20446;-81
2023/07/16 09:16:50;;;;;;;8.07;7.17;;;;;;;34.51;47.04;95106.03;5116198;28;20871;-81
2023/07/16 09:19:18;;;;;;;10.70;6.97;;;;;;;34.68;46.20;95114.69;5116003;28;20478;-81
2023/07/16 09:21:50;;;;;;;10.17;8.03;;;;;;;34.77;46.35;95113.06;5080639;28;20450;-80
2023/07/16 09:24:17;;;;;;;8.10;7.30;;;;;;;34.75;45.46;95112.53;5115994;28;20489;-80
2023/07/16 09:26:53;;;;;;;8.63;7.97;;;;;;;34.69;46.22;95108.97;5115657;28;20937;-79
2023/07/16 09:29:22;;;;;;;9.97;7.50;;;;;;;34.20;46.67;95106.00;5115774;28;20442;-81
2023/07/16 09:32:02;;;;;;;9.33;8.40;;;;;;;34.26;47.05;95104.91;5079759;28;20527;-80
2023/07/16 09:34:29;;;;;;;8.20;7.40;;;;;;;34.44;47.34;95106.31;5115812;28;20925;-80
2023/07/16 09:36:58;;;;;;;11.40;8.10;;;;;;;34.20;46.92;95106.00;5115539;28;20478;-80
2023/07/16 09:39:29;;;;;;;10.93;6.43;;;;;;;33.95;47.66;95108.72;5115825;28;20985;-80
2023/07/16 09:41:59;;;;;;;8.40;7.10;;;;;;;33.63;50.06;95095.31;5115647;28;20949;-81
2023/07/16 09:44:28;;;;;;;9.03;8.20;;;;;;;33.73;49.58;95092.59;5080845;28;20454;-80
2023/07/16 09:46:55;;;;;;;8.67;7.87;;;;;;;33.88;49.58;95092.66;5115544;28;20929;-80
2023/07/16 09:49:22;;;;;;;8.50;7.70;;;;;;;33.96;48.74;95094.00;5115310;28;20925;-80
2023/07/16 09:51:49;;;;;;;11.23;8.53;;;;;;;34.09;48.58;95091.56;5115402;28;20933;-81
2023/07/16 09:54:16;;;;;;;9.30;8.10;;;;;;;34.18;46.94;95094.56;5115306;28;20446;-81
2023/07/16 09:56:47;;;;;;;14.37;8.93;;;;;;;33.94;48.08;95090.75;5115123;28;20439;-79
2023/07/16 09:59:16;;;;;;;11.67;9.33;;;;;;;33.92;49.77;95090.22;5115090;28;20450;-80
2023/07/16 10:01:44;;;;;;;10.73;9.17;;;;;;;34.01;49.07;95080.41;5115648;28;20443;-79
2023/07/16 10:04:13;;;;;;;8.80;7.90;;;;;;;33.55;49.17;95080.34;5115367;28;20438;-80
2023/07/16 10:06:50;;;;;;;10.07;8.83;;;;;;;33.45;49.09;95083.00;5079932;28;20443;-79
2023/07/16 10:09:35;;;;;;;11.83;8.30;;;;;;;33.53;48.83;95074.31;5115553;28;20503;-80
2023/07/16 10:12:16;;;;;;;8.90;8.10;;;;;;;33.66;49.55;95071.09;5116258;28;20443;-80
2023/07/16 10:14:48;;;;;;;9.10;8.30;;;;;;;33.47;48.71;95070.75;5079681;28;20814;-79
2023/07/16 10:17:18;;;;;;;11.17;9.40;;;;;;;33.35;49.46;95061.22;5079784;28;20442;-80
2023/07/16 10:19:52;;;;;;;9.43;8.60;;;;;;;33.40;50.47;95061.22;5114620;28;20479;-80
2023/07/16 10:22:19;;;;;;;11.07;9.97;;;;;;;33.39;49.15;95065.03;5114949;28;20500;-79
2023/07/16 10:24:53;;;;;;;14.93;10.20;;;;;;;33.53;47.60;95057.97;5078936;28;20481;-80
2023/07/16 10:27:28;;;;;;;11.63;9.80;;;;;;;33.65;48.31;95066.72;5114746;28;20530;-80
2023/07/16 10:29:55;;;;;;;9.77;8.90;;;;;;;33.76;48.20;95060.19;5114998;28;20442;-80
2023/07/16 10:32:28;;;;;;;11.37;9.13;;;;;;;33.81;49.66;95065.63;5115068;28;20447;-80
2023/07/16 10:34:57;;;;;;;8.93;8.13;;;;;;;33.85;49.21;95050.44;5114482;28;20486;-80
2023/07/16 10:37:23;;;;;;;9.73;8.80;;;;;;;33.92;49.05;95058.34;5114556;28;20477;-80
2023/07/16 10:39:53;;;;;;;10.40;8.83;;;;;;;33.98;49.87;95050.97;5114143;28;20482;-80
2023/07/16 10:42:20;;;;;;;8.47;7.67;;;;;;;33.67;49.26;95050.13;5115054;28;20447;-81
2023/07/16 10:44:51;;;;;;;13.87;9.43;;;;;;;33.81;49.75;95053.94;5114371;28;20855;-80
2023/07/16 10:47:23;;;;;;;20.27;9.47;;;;;;;33.86;50.31;95051.28;5114763;28;20467;-80
2023/07/16 10:49:53;;;;;;;9.53;8.63;;;;;;;33.92;50.57;95054.81;5114653;28;20791;-79
2023/07/16 10:52:21;;;;;;;9.70;8.87;;;;;;;33.99;49.33;95055.34;5114577;28;20442;-80
2023/07/16 10:54:49;;;;;;;11.03;9.93;;;;;;;33.79;49.48;95046.03;5114199;28;20443;-79
2023/07/16 10:57:19;;;;;;;10.77;9.77;;;;;;;33.63;48.39;95051.75;5113960;28;20442;-80
2023/07/16 10:59:47;;;;;;;9.80;9.00;;;;;;;33.67;50.13;95048.22;5113939;28;20486;-80
2023/07/16 11:02:15;;;;;;;11.60;10.07;;;;;;;33.65;48.63;95053.13;5114367;28;20538;-80
2023/07/16 11:04:43;;;;;;;11.23;9.90;;;;;;;33.42;48.73;95046.28;5115462;28;20450;-80
2023/07/16 11:07:13;;;;;;;13.00;9.73;;;;;;;33.46;48.00;95043.81;5116718;28;20444;-79
2023/07/16 11:09:43;;;;;;;11.10;9.60;;;;;;;33.62;49.92;95042.78;5119608;28;20446;-80
2023/07/16 11:12:12;;;;;;;10.23;9.23;;;;;;;33.71;48.98;95040.31;5117680;28;20431;-80
2023/07/16 11:14:39;;;;;;;18.33;9.13;;;;;;;33.76;48.17;95038.41;5116349;28;20447;-81
2023/07/16 11:17:08;;;;;;;11.50;10.40;;;;;;;33.86;48.55;95034.94;5115125;28;20450;-80
2023/07/16 11:19:35;;;;;;;12.23;11.00;;;;;;;33.97;47.85;95038.47;5114554;28;20458;-79
2023/07/16 11:22:03;;;;;;;22.63;10.30;;;;;;;33.96;48.06;95036.81;5115601;28;20450;-79
2023/07/16 11:24:37;;;;;;;11.00;9.93;;;;;;;34.03;47.90;95031.91;5114168;28;20443;-79
2023/07/16 11:27:04;;;;;;;13.00;10.40;;;;;;;34.10;47.85;95029.72;5114610;28;20450;-80
2023/07/16 11:29:36;;;;;;;11.80;10.60;;;;;;;34.16;46.16;95029.47;5061820;28;20474;-80
2023/07/16 11:32:03;;;;;;;17.33;9.60;;;;;;;34.20;47.33;95027.00;5115472;28;20495;-77
2023/07/16 11:34:30;;;;;;;12.23;9.43;;;;;;;34.06;46.79;95023.19;5113782;28;20448;-80